sensor_id;sensor_type;location;lat;lon;timestamp;pressure;altitude;pressure_sealevel;temperature;humidity
49463;BME280;35357;51.722;0.500;2022-10-16T00:00:47;100307.39;;;13.48;74.47
49463;BME280;35357;51.722;0.500;2022-10-16T00:03:14;100308.20;;;13.34;75.63
49463;BME280;35357;51.722;0.500;2022-10-16T00:05:42;100302.13;;;13.29;75.68
49463;BME280;35357;51.722;0.500;2022-10-16T00:08:11;100302.25;;;13.45;75.17
49463;BME280;35357;51.722;0.500;2022-10-16T00:10:39;100303.64;;;13.66;73.23
49463;BME280;35357;51.722;0.500;2022-10-16T00:13:07;100313.39;;;13.41;74.51
49463;BME280;35357;51.722;0.500;2022-10-16T00:15:35;100314.59;;;13.73;72.63
49463;BME280;35357;51.722;0.500;2022-10-16T00:18:03;100314.19;;;12.87;75.48
49463;BME280;35357;51.722;0.500;2022-10-16T00:20:33;100306.04;;;13.76;73.17
49463;BME280;35357;51.722;0.500;2022-10-16T00:23:00;100311.40;;;12.63;76.09
49463;BME280;35357;51.722;0.500;2022-10-16T00:25:28;100315.68;;;13.30;73.72
49463;BME280;35357;51.722;0.500;2022-10-16T00:27:55;100313.52;;;13.34;73.82
49463;BME280;35357;51.722;0.500;2022-10-16T00:30:22;100310.48;;;12.93;74.35
49463;BME280;35357;51.722;0.500;2022-10-16T00:32:49;100313.64;;;13.03;75.25
49463;BME280;35357;51.722;0.500;2022-10-16T00:35:16;100317.81;;;12.68;76.51
49463;BME280;35357;51.722;0.500;2022-10-16T00:37:44;100311.65;;;13.71;73.53
49463;BME280;35357;51.722;0.500;2022-10-16T00:40:11;100314.42;;;13.24;74.33
49463;BME280;35357;51.722;0.500;2022-10-16T00:42:39;100319.09;;;13.88;72.86
49463;BME280;35357;51.722;0.500;2022-10-16T00:45:09;100321.32;;;12.55;75.33
49463;BME280;35357;51.722;0.500;2022-10-16T00:47:38;100330.04;;;12.51;76.46
49463;BME280;35357;51.722;0.500;2022-10-16T00:50:09;100329.45;;;13.26;74.36
49463;BME280;35357;51.722;0.500;2022-10-16T00:52:40;100326.30;;;14.16;71.97
49463;BME280;35357;51.722;0.500;2022-10-16T00:55:09;100326.60;;;13.38;72.30
49463;BME280;35357;51.722;0.500;2022-10-16T00:57:37;100324.96;;;13.72;71.80
49463;BME280;35357;51.722;0.500;2022-10-16T01:00:07;100328.29;;;14.04;71.32
49463;BME280;35357;51.722;0.500;2022-10-16T01:02:35;100333.19;;;13.65;72.11
49463;BME280;35357;51.722;0.500;2022-10-16T01:05:04;100336.28;;;13.08;74.28
49463;BME280;35357;51.722;0.500;2022-10-16T01:07:39;100343.82;;;12.80;76.27
49463;BME280;35357;51.722;0.500;2022-10-16T01:10:16;100345.32;;;13.25;73.91
49463;BME280;35357;51.722;0.500;2022-10-16T01:12:51;100347.35;;;13.78;73.76
49463;BME280;35357;51.722;0.500;2022-10-16T01:15:27;100343.43;;;13.80;72.07
49463;BME280;35357;51.722;0.500;2022-10-16T01:18:00;100345.99;;;14.45;69.82
49463;BME280;35357;51.722;0.500;2022-10-16T01:20:34;100344.24;;;14.24;70.33
49463;BME280;35357;51.722;0.500;2022-10-16T01:23:10;100342.03;;;14.22;70.00
49463;BME280;35357;51.722;0.500;2022-10-16T01:26:07;100334.47;;;14.28;70.31
49463;BME280;35357;51.722;0.500;2022-10-16T01:28:41;100335.79;;;14.10;70.33
49463;BME280;35357;51.722;0.500;2022-10-16T01:31:15;100338.10;;;14.12;70.16
49463;BME280;35357;51.722;0.500;2022-10-16T01:33:47;100339.84;;;14.09;69.96
49463;BME280;35357;51.722;0.500;2022-10-16T01:36:23;100343.56;;;13.84;69.83
49463;BME280;35357;51.722;0.500;2022-10-16T01:38:56;100341.84;;;14.05;69.85
49463;BME280;35357;51.722;0.500;2022-10-16T01:41:30;100345.55;;;13.75;70.83
49463;BME280;35357;51.722;0.500;2022-10-16T01:44:02;100346.95;;;13.99;70.03
49463;BME280;35357;51.722;0.500;2022-10-16T01:46:32;100346.34;;;13.69;70.74
49463;BME280;35357;51.722;0.500;2022-10-16T01:49:00;100343.69;;;14.02;69.76
49463;BME280;35357;51.722;0.500;2022-10-16T01:51:29;100350.01;;;14.05;69.52
49463;BME280;35357;51.722;0.500;2022-10-16T01:53:59;100355.95;;;13.79;70.91
49463;BME280;35357;51.722;0.500;2022-10-16T01:56:28;100362.45;;;13.47;71.48
49463;BME280;35357;51.722;0.500;2022-10-16T01:59:00;100359.70;;;13.33;72.01
49463;BME280;35357;51.722;0.500;2022-10-16T02:01:31;100366.98;;;12.36;76.47
49463;BME280;35357;51.722;0.500;2022-10-16T02:04:07;100369.42;;;12.82;75.13
49463;BME280;35357;51.722;0.500;2022-10-16T02:06:35;100366.10;;;13.43;72.69
49463;BME280;35357;51.722;0.500;2022-10-16T02:09:02;100364.01;;;13.56;71.80
49463;BME280;35357;51.722;0.500;2022-10-16T02:11:29;100372.68;;;13.24;72.62
49463;BME280;35357;51.722;0.500;2022-10-16T02:14:00;100371.25;;;13.92;71.51
49463;BME280;35357;51.722;0.500;2022-10-16T02:16:33;100371.91;;;13.68;70.83
49463;BME280;35357;51.722;0.500;2022-10-16T02:19:01;100373.17;;;13.53;70.84
49463;BME280;35357;51.722;0.500;2022-10-16T02:21:32;100373.63;;;13.76;71.51
49463;BME280;35357;51.722;0.500;2022-10-16T02:24:05;100369.84;;;13.54;71.95
49463;BME280;35357;51.722;0.500;2022-10-16T02:26:38;100361.62;;;13.58;71.55
49463;BME280;35357;51.722;0.500;2022-10-16T02:29:11;100370.78;;;13.87;71.64
49463;BME280;35357;51.722;0.500;2022-10-16T02:31:43;100376.32;;;13.47;72.38
49463;BME280;35357;51.722;0.500;2022-10-16T02:34:13;100381.38;;;13.73;72.50
49463;BME280;35357;51.722;0.500;2022-10-16T02:36:42;100382.24;;;13.53;72.97
49463;BME280;35357;51.722;0.500;2022-10-16T02:39:10;100382.88;;;13.72;73.46
49463;BME280;35357;51.722;0.500;2022-10-16T02:41:38;100387.72;;;12.14;78.85
49463;BME280;35357;51.722;0.500;2022-10-16T02:44:05;100388.46;;;12.93;76.92
49463;BME280;35357;51.722;0.500;2022-10-16T02:46:32;100384.72;;;12.34;78.44
49463;BME280;35357;51.722;0.500;2022-10-16T02:49:00;100389.31;;;12.81;78.67
49463;BME280;35357;51.722;0.500;2022-10-16T02:51:27;100386.06;;;12.08;79.14
49463;BME280;35357;51.722;0.500;2022-10-16T02:53:54;100385.52;;;12.84;78.23
49463;BME280;35357;51.722;0.500;2022-10-16T02:56:22;100385.25;;;11.99;80.98
49463;BME280;35357;51.722;0.500;2022-10-16T02:58:49;100388.93;;;12.46;78.31
49463;BME280;35357;51.722;0.500;2022-10-16T03:01:16;100388.18;;;11.54;80.96
49463;BME280;35357;51.722;0.500;2022-10-16T03:03:43;100395.21;;;10.82;83.70
49463;BME280;35357;51.722;0.500;2022-10-16T03:06:10;100390.99;;;11.82;80.87
49463;BME280;35357;51.722;0.500;2022-10-16T03:08:37;100390.37;;;12.14;80.04
49463;BME280;35357;51.722;0.500;2022-10-16T03:11:04;100398.77;;;11.81;80.07
49463;BME280;35357;51.722;0.500;2022-10-16T03:13:31;100403.54;;;11.55;81.68
49463;BME280;35357;51.722;0.500;2022-10-16T03:15:58;100411.09;;;12.03;79.34
49463;BME280;35357;51.722;0.500;2022-10-16T03:18:26;100421.08;;;11.92;78.70
49463;BME280;35357;51.722;0.500;2022-10-16T03:20:53;100426.02;;;11.60;79.58
49463;BME280;35357;51.722;0.500;2022-10-16T03:23:19;100425.87;;;11.54;80.63
49463;BME280;35357;51.722;0.500;2022-10-16T03:25:46;100427.34;;;12.07;78.21
49463;BME280;35357;51.722;0.500;2022-10-16T03:28:13;100432.91;;;12.05;79.10
49463;BME280;35357;51.722;0.500;2022-10-16T03:30:40;100435.45;;;11.98;78.41
49463;BME280;35357;51.722;0.500;2022-10-16T03:33:07;100437.60;;;12.24;79.25
49463;BME280;35357;51.722;0.500;2022-10-16T03:35:34;100441.21;;;12.42;79.38
49463;BME280;35357;51.722;0.500;2022-10-16T03:38:01;100447.99;;;12.38;79.44
49463;BME280;35357;51.722;0.500;2022-10-16T03:40:29;100451.35;;;12.31;79.37
49463;BME280;35357;51.722;0.500;2022-10-16T03:42:56;100450.34;;;11.82;79.94
49463;BME280;35357;51.722;0.500;2022-10-16T03:45:24;100455.11;;;11.99;78.95
49463;BME280;35357;51.722;0.500;2022-10-16T03:47:51;100455.65;;;12.19;77.80
49463;BME280;35357;51.722;0.500;2022-10-16T03:50:18;100461.35;;;10.98;80.08
49463;BME280;35357;51.722;0.500;2022-10-16T03:52:46;100456.28;;;12.11;78.30
49463;BME280;35357;51.722;0.500;2022-10-16T03:55:13;100461.39;;;12.21;77.39
49463;BME280;35357;51.722;0.500;2022-10-16T03:57:40;100463.01;;;12.56;76.02
49463;BME280;35357;51.722;0.500;2022-10-16T04:00:08;100461.58;;;11.49;77.17
49463;BME280;35357;51.722;0.500;2022-10-16T04:02:35;100464.10;;;11.48;77.11
49463;BME280;35357;51.722;0.500;2022-10-16T04:05:03;100467.75;;;11.52;76.91
49463;BME280;35357;51.722;0.500;2022-10-16T04:07:31;100471.78;;;12.07;74.81
49463;BME280;35357;51.722;0.500;2022-10-16T04:09:58;100473.62;;;11.85;75.38
49463;BME280;35357;51.722;0.500;2022-10-16T04:12:25;100482.23;;;11.56;74.20
49463;BME280;35357;51.722;0.500;2022-10-16T04:14:51;100489.79;;;11.33;76.77
49463;BME280;35357;51.722;0.500;2022-10-16T04:17:18;100498.82;;;12.04;74.44
49463;BME280;35357;51.722;0.500;2022-10-16T04:19:45;100502.00;;;10.99;77.39
49463;BME280;35357;51.722;0.500;2022-10-16T04:22:13;100501.78;;;11.45;76.28
49463;BME280;35357;51.722;0.500;2022-10-16T04:24:40;100509.09;;;11.83;74.62
49463;BME280;35357;51.722;0.500;2022-10-16T04:27:07;100514.10;;;11.79;75.43
49463;BME280;35357;51.722;0.500;2022-10-16T04:29:35;100522.44;;;12.10;74.62
49463;BME280;35357;51.722;0.500;2022-10-16T04:32:03;100525.70;;;11.64;76.37
49463;BME280;35357;51.722;0.500;2022-10-16T04:34:30;100532.87;;;12.13;74.88
49463;BME280;35357;51.722;0.500;2022-10-16T04:36:57;100531.62;;;11.95;73.60
49463;BME280;35357;51.722;0.500;2022-10-16T04:39:24;100540.66;;;12.68;72.85
49463;BME280;35357;51.722;0.500;2022-10-16T04:41:51;100546.33;;;12.47;72.08
49463;BME280;35357;51.722;0.500;2022-10-16T04:44:18;100550.88;;;11.97;74.01
49463;BME280;35357;51.722;0.500;2022-10-16T04:46:45;100552.77;;;11.74;74.11
49463;BME280;35357;51.722;0.500;2022-10-16T04:49:13;100555.35;;;11.99;74.91
49463;BME280;35357;51.722;0.500;2022-10-16T04:51:40;100557.73;;;11.83;73.47
49463;BME280;35357;51.722;0.500;2022-10-16T04:54:07;100565.55;;;11.89;73.58
49463;BME280;35357;51.722;0.500;2022-10-16T04:56:35;100567.70;;;12.23;74.03
49463;BME280;35357;51.722;0.500;2022-10-16T04:59:02;100571.41;;;11.44;76.11
49463;BME280;35357;51.722;0.500;2022-10-16T05:01:29;100576.79;;;11.72;75.26
49463;BME280;35357;51.722;0.500;2022-10-16T05:03:56;100587.53;;;12.08;73.15
49463;BME280;35357;51.722;0.500;2022-10-16T05:06:23;100586.93;;;12.46;71.52
49463;BME280;35357;51.722;0.500;2022-10-16T05:08:51;100594.52;;;11.54;74.74
49463;BME280;35357;51.722;0.500;2022-10-16T05:11:17;100601.80;;;12.17;73.30
49463;BME280;35357;51.722;0.500;2022-10-16T05:13:45;100606.26;;;11.75;75.19
49463;BME280;35357;51.722;0.500;2022-10-16T05:16:12;100609.57;;;12.54;72.72
49463;BME280;35357;51.722;0.500;2022-10-16T05:18:38;100615.02;;;12.33;72.43
49463;BME280;35357;51.722;0.500;2022-10-16T05:21:05;100625.94;;;12.08;73.39
49463;BME280;35357;51.722;0.500;2022-10-16T05:23:32;100625.94;;;11.31;76.32
49463;BME280;35357;51.722;0.500;2022-10-16T05:25:59;100630.09;;;12.19;74.12
49463;BME280;35357;51.722;0.500;2022-10-16T05:28:28;100631.37;;;12.03;72.86
49463;BME280;35357;51.722;0.500;2022-10-16T05:30:55;100633.18;;;12.21;72.77
49463;BME280;35357;51.722;0.500;2022-10-16T05:33:24;100637.47;;;12.47;72.31
49463;BME280;35357;51.722;0.500;2022-10-16T05:35:52;100641.80;;;12.29;71.44
49463;BME280;35357;51.722;0.500;2022-10-16T05:38:19;100645.35;;;12.67;70.97
49463;BME280;35357;51.722;0.500;2022-10-16T05:40:51;100650.79;;;11.92;73.09
49463;BME280;35357;51.722;0.500;2022-10-16T05:43:18;100652.31;;;11.87;73.96
49463;BME280;35357;51.722;0.500;2022-10-16T05:45:54;100655.16;;;11.47;76.78
49463;BME280;35357;51.722;0.500;2022-10-16T05:48:20;100663.23;;;12.07;75.23
49463;BME280;35357;51.722;0.500;2022-10-16T05:50:47;100666.23;;;11.78;75.34
49463;BME280;35357;51.722;0.500;2022-10-16T05:53:14;100668.59;;;12.41;73.81
49463;BME280;35357;51.722;0.500;2022-10-16T05:55:41;100679.98;;;11.83;74.79
49463;BME280;35357;51.722;0.500;2022-10-16T05:58:09;100684.27;;;12.15;74.65
49463;BME280;35357;51.722;0.500;2022-10-16T06:00:37;100685.87;;;12.03;74.88
49463;BME280;35357;51.722;0.500;2022-10-16T06:03:04;100689.53;;;12.50;73.16
49463;BME280;35357;51.722;0.500;2022-10-16T06:05:30;100694.71;;;12.54;72.70
49463;BME280;35357;51.722;0.500;2022-10-16T06:07:57;100699.00;;;11.83;74.08
49463;BME280;35357;51.722;0.500;2022-10-16T06:10:24;100699.12;;;11.49;75.32
49463;BME280;35357;51.722;0.500;2022-10-16T06:12:51;100705.86;;;11.82;75.85
49463;BME280;35357;51.722;0.500;2022-10-16T06:15:19;100711.42;;;12.02;75.20
49463;BME280;35357;51.722;0.500;2022-10-16T06:17:46;100714.60;;;12.37;73.31
49463;BME280;35357;51.722;0.500;2022-10-16T06:20:13;100720.40;;;12.14;73.06
49463;BME280;35357;51.722;0.500;2022-10-16T06:22:41;100721.77;;;12.44;71.78
49463;BME280;35357;51.722;0.500;2022-10-16T06:25:08;100730.85;;;12.40;71.82
49463;BME280;35357;51.722;0.500;2022-10-16T06:27:35;100732.02;;;12.77;70.45
49463;BME280;35357;51.722;0.500;2022-10-16T06:30:04;100737.07;;;12.88;69.93
49463;BME280;35357;51.722;0.500;2022-10-16T06:32:31;100737.67;;;13.00;69.55
49463;BME280;35357;51.722;0.500;2022-10-16T06:34:58;100741.76;;;13.09;69.02
49463;BME280;35357;51.722;0.500;2022-10-16T06:37:25;100745.29;;;12.41;70.87
49463;BME280;35357;51.722;0.500;2022-10-16T06:39:53;100750.49;;;12.43;70.98
49463;BME280;35357;51.722;0.500;2022-10-16T06:42:20;100749.35;;;13.08;69.68
49463;BME280;35357;51.722;0.500;2022-10-16T06:44:47;100748.87;;;13.05;69.81
49463;BME280;35357;51.722;0.500;2022-10-16T06:47:14;100756.76;;;12.22;70.70
49463;BME280;35357;51.722;0.500;2022-10-16T06:49:42;100758.79;;;12.53;69.94
49463;BME280;35357;51.722;0.500;2022-10-16T06:52:09;100763.79;;;12.50;69.91
49463;BME280;35357;51.722;0.500;2022-10-16T06:54:35;100765.24;;;12.30;70.08
49463;BME280;35357;51.722;0.500;2022-10-16T06:57:02;100769.30;;;12.12;70.75
49463;BME280;35357;51.722;0.500;2022-10-16T06:59:29;100774.82;;;12.63;69.37
49463;BME280;35357;51.722;0.500;2022-10-16T07:01:56;100777.79;;;12.75;68.91
49463;BME280;35357;51.722;0.500;2022-10-16T07:04:24;100778.00;;;12.94;68.19
49463;BME280;35357;51.722;0.500;2022-10-16T07:06:51;100780.48;;;12.87;67.83
49463;BME280;35357;51.722;0.500;2022-10-16T07:09:18;100781.92;;;13.26;67.17
49463;BME280;35357;51.722;0.500;2022-10-16T07:11:45;100785.93;;;13.01;67.60
49463;BME280;35357;51.722;0.500;2022-10-16T07:14:15;100791.91;;;13.05;67.35
49463;BME280;35357;51.722;0.500;2022-10-16T07:16:43;100800.23;;;13.02;67.52
49463;BME280;35357;51.722;0.500;2022-10-16T07:19:11;100806.32;;;12.73;68.21
49463;BME280;35357;51.722;0.500;2022-10-16T07:21:38;100812.51;;;12.23;69.84
49463;BME280;35357;51.722;0.500;2022-10-16T07:24:07;100816.78;;;12.91;68.01
49463;BME280;35357;51.722;0.500;2022-10-16T07:26:37;100816.72;;;12.88;68.51
49463;BME280;35357;51.722;0.500;2022-10-16T07:29:04;100820.90;;;12.59;68.97
49463;BME280;35357;51.722;0.500;2022-10-16T07:31:31;100828.26;;;12.04;70.36
49463;BME280;35357;51.722;0.500;2022-10-16T07:33:58;100832.00;;;12.08;71.56
49463;BME280;35357;51.722;0.500;2022-10-16T07:36:26;100839.09;;;11.75;72.08
49463;BME280;35357;51.722;0.500;2022-10-16T07:38:53;100848.22;;;12.32;70.33
49463;BME280;35357;51.722;0.500;2022-10-16T07:41:20;100851.42;;;13.05;69.20
49463;BME280;35357;51.722;0.500;2022-10-16T07:43:48;100859.38;;;12.04;70.92
49463;BME280;35357;51.722;0.500;2022-10-16T07:46:17;100867.19;;;12.62;69.31
49463;BME280;35357;51.722;0.500;2022-10-16T07:48:44;100869.21;;;12.88;69.79
49463;BME280;35357;51.722;0.500;2022-10-16T07:51:13;100867.95;;;12.83;69.59
49463;BME280;35357;51.722;0.500;2022-10-16T07:53:40;100869.86;;;12.76;69.57
49463;BME280;35357;51.722;0.500;2022-10-16T07:56:07;100867.38;;;12.69;69.86
49463;BME280;35357;51.722;0.500;2022-10-16T07:58:35;100873.89;;;12.86;68.89
49463;BME280;35357;51.722;0.500;2022-10-16T08:01:04;100879.79;;;12.13;71.36
49463;BME280;35357;51.722;0.500;2022-10-16T08:03:32;100886.70;;;12.94;69.76
49463;BME280;35357;51.722;0.500;2022-10-16T08:06:00;100892.43;;;12.38;70.61
49463;BME280;35357;51.722;0.500;2022-10-16T08:08:28;100892.98;;;13.36;68.66
49463;BME280;35357;51.722;0.500;2022-10-16T08:10:55;100894.37;;;13.38;68.20
49463;BME280;35357;51.722;0.500;2022-10-16T08:13:22;100897.47;;;12.79;68.55
49463;BME280;35357;51.722;0.500;2022-10-16T08:15:50;100903.95;;;13.54;68.45
49463;BME280;35357;51.722;0.500;2022-10-16T08:18:17;100906.61;;;13.18;68.44
49463;BME280;35357;51.722;0.500;2022-10-16T08:20:44;100909.49;;;12.97;69.55
49463;BME280;35357;51.722;0.500;2022-10-16T08:23:11;100913.30;;;12.57;70.91
49463;BME280;35357;51.722;0.500;2022-10-16T08:25:40;100917.20;;;13.09;69.63
49463;BME280;35357;51.722;0.500;2022-10-16T08:28:10;100914.59;;;12.91;69.99
49463;BME280;35357;51.722;0.500;2022-10-16T08:30:37;100920.17;;;12.78;70.65
49463;BME280;35357;51.722;0.500;2022-10-16T08:33:05;100927.64;;;11.73;74.12
49463;BME280;35357;51.722;0.500;2022-10-16T08:35:32;100924.35;;;13.10;70.10
49463;BME280;35357;51.722;0.500;2022-10-16T08:37:59;100931.74;;;11.78;73.31
49463;BME280;35357;51.722;0.500;2022-10-16T08:40:28;100931.30;;;11.90;73.28
49463;BME280;35357;51.722;0.500;2022-10-16T08:43:06;100933.64;;;12.47;71.76
49463;BME280;35357;51.722;0.500;2022-10-16T08:45:47;100938.56;;;10.93;75.58
49463;BME280;35357;51.722;0.500;2022-10-16T08:48:20;100938.11;;;12.04;72.87
49463;BME280;35357;51.722;0.500;2022-10-16T08:50:52;100941.43;;;12.67;71.03
49463;BME280;35357;51.722;0.500;2022-10-16T08:53:24;100947.36;;;11.84;73.43
49463;BME280;35357;51.722;0.500;2022-10-16T08:55:53;100945.45;;;11.55;75.16
49463;BME280;35357;51.722;0.500;2022-10-16T08:58:22;100949.41;;;11.70;74.12
49463;BME280;35357;51.722;0.500;2022-10-16T09:00:54;100955.08;;;12.42;71.80
49463;BME280;35357;51.722;0.500;2022-10-16T09:03:31;100961.89;;;11.21;74.93
49463;BME280;35357;51.722;0.500;2022-10-16T09:06:10;100967.93;;;11.97;73.10
49463;BME280;35357;51.722;0.500;2022-10-16T09:08:51;100968.52;;;11.40;73.41
49463;BME280;35357;51.722;0.500;2022-10-16T09:11:25;100972.74;;;11.66;74.20
49463;BME280;35357;51.722;0.500;2022-10-16T09:14:01;100974.81;;;12.84;71.23
49463;BME280;35357;51.722;0.500;2022-10-16T09:16:36;100973.78;;;12.60;72.32
49463;BME280;35357;51.722;0.500;2022-10-16T09:19:12;100972.45;;;12.78;71.03
49463;BME280;35357;51.722;0.500;2022-10-16T09:21:43;100970.11;;;13.22;69.05
49463;BME280;35357;51.722;0.500;2022-10-16T09:24:13;100981.10;;;11.92;71.93
49463;BME280;35357;51.722;0.500;2022-10-16T09:26:41;100975.81;;;13.25;68.71
49463;BME280;35357;51.722;0.500;2022-10-16T09:29:10;100978.98;;;13.29;68.28
49463;BME280;35357;51.722;0.500;2022-10-16T09:31:39;100980.64;;;13.35;67.36
49463;BME280;35357;51.722;0.500;2022-10-16T09:34:20;100991.57;;;12.72;69.47
49463;BME280;35357;51.722;0.500;2022-10-16T09:36:51;100992.25;;;12.78;69.63
49463;BME280;35357;51.722;0.500;2022-10-16T09:39:18;100996.50;;;13.58;67.72
49463;BME280;35357;51.722;0.500;2022-10-16T09:41:46;100990.91;;;13.81;66.15
49463;BME280;35357;51.722;0.500;2022-10-16T09:44:19;100992.75;;;12.71;68.68
49463;BME280;35357;51.722;0.500;2022-10-16T09:46:48;100995.53;;;12.58;69.01
49463;BME280;35357;51.722;0.500;2022-10-16T09:49:21;100989.91;;;12.95;68.72
49463;BME280;35357;51.722;0.500;2022-10-16T09:51:51;100993.92;;;12.42;70.50
49463;BME280;35357;51.722;0.500;2022-10-16T09:54:19;100996.20;;;12.39;72.43
49463;BME280;35357;51.722;0.500;2022-10-16T09:56:47;100990.25;;;13.44;68.76
49463;BME280;35357;51.722;0.500;2022-10-16T09:59:17;100989.15;;;13.02;68.66
49463;BME280;35357;51.722;0.500;2022-10-16T10:01:47;100990.57;;;13.57;67.79
49463;BME280;35357;51.722;0.500;2022-10-16T10:04:14;100991.94;;;14.44;64.59
49463;BME280;35357;51.722;0.500;2022-10-16T10:06:44;100991.51;;;14.22;65.82
49463;BME280;35357;51.722;0.500;2022-10-16T10:09:22;100995.71;;;13.76;66.99
49463;BME280;35357;51.722;0.500;2022-10-16T10:11:53;100995.11;;;13.74;66.16
49463;BME280;35357;51.722;0.500;2022-10-16T10:14:24;100995.95;;;14.66;63.31
49463;BME280;35357;51.722;0.500;2022-10-16T10:17:10;100997.91;;;14.78;61.69
49463;BME280;35357;51.722;0.500;2022-10-16T10:19:39;101001.15;;;14.36;61.05
49463;BME280;35357;51.722;0.500;2022-10-16T10:22:17;101007.37;;;14.01;62.04
49463;BME280;35357;51.722;0.500;2022-10-16T10:24:55;101011.16;;;13.62;63.26
49463;BME280;35357;51.722;0.500;2022-10-16T10:27:29;101014.63;;;14.58;62.98
49463;BME280;35357;51.722;0.500;2022-10-16T10:30:01;101017.71;;;13.86;63.49
49463;BME280;35357;51.722;0.500;2022-10-16T10:32:36;101020.93;;;14.29;62.75
49463;BME280;35357;51.722;0.500;2022-10-16T10:35:15;101023.28;;;14.64;60.53
49463;BME280;35357;51.722;0.500;2022-10-16T10:37:55;101025.33;;;15.35;58.77
49463;BME280;35357;51.722;0.500;2022-10-16T10:40:37;101026.09;;;15.61;56.99
49463;BME280;35357;51.722;0.500;2022-10-16T10:43:17;101026.12;;;15.67;58.64
49463;BME280;35357;51.722;0.500;2022-10-16T10:45:54;101025.94;;;15.99;57.41
49463;BME280;35357;51.722;0.500;2022-10-16T10:48:41;101025.41;;;16.78;55.99
49463;BME280;35357;51.722;0.500;2022-10-16T10:51:18;101024.01;;;15.99;56.41
49463;BME280;35357;51.722;0.500;2022-10-16T10:53:54;101013.59;;;16.14;57.02
49463;BME280;35357;51.722;0.500;2022-10-16T10:56:42;101016.67;;;14.21;58.96
49463;BME280;35357;51.722;0.500;2022-10-16T10:59:58;101015.51;;;16.06;56.50
49463;BME280;35357;51.722;0.500;2022-10-16T11:02:33;101018.68;;;16.56;55.81
49463;BME280;35357;51.722;0.500;2022-10-16T11:05:20;101016.75;;;16.72;55.13
49463;BME280;35357;51.722;0.500;2022-10-16T11:07:54;101020.42;;;16.66;55.20
49463;BME280;35357;51.722;0.500;2022-10-16T11:10:25;101019.23;;;16.15;56.34
49463;BME280;35357;51.722;0.500;2022-10-16T11:12:58;101011.86;;;15.83;57.00
49463;BME280;35357;51.722;0.500;2022-10-16T11:15:30;101008.17;;;15.71;57.58
49463;BME280;35357;51.722;0.500;2022-10-16T11:18:04;101013.14;;;16.28;57.07
49463;BME280;35357;51.722;0.500;2022-10-16T11:20:34;101011.68;;;16.93;54.57
49463;BME280;35357;51.722;0.500;2022-10-16T11:23:10;101012.34;;;16.78;55.04
49463;BME280;35357;51.722;0.500;2022-10-16T11:25:43;101012.54;;;16.64;54.44
49463;BME280;35357;51.722;0.500;2022-10-16T11:28:16;101011.50;;;17.14;54.32
49463;BME280;35357;51.722;0.500;2022-10-16T11:30:49;101014.38;;;16.87;54.25
49463;BME280;35357;51.722;0.500;2022-10-16T11:33:27;101019.22;;;16.06;56.06
49463;BME280;35357;51.722;0.500;2022-10-16T11:36:00;101016.15;;;16.51;54.27
49463;BME280;35357;51.722;0.500;2022-10-16T11:38:32;101015.46;;;16.52;52.10
49463;BME280;35357;51.722;0.500;2022-10-16T11:41:03;101014.95;;;16.21;52.63
49463;BME280;35357;51.722;0.500;2022-10-16T11:43:38;101013.33;;;16.22;53.02
49463;BME280;35357;51.722;0.500;2022-10-16T11:46:12;101013.82;;;16.70;52.58
49463;BME280;35357;51.722;0.500;2022-10-16T11:48:43;101017.77;;;16.67;52.33
49463;BME280;35357;51.722;0.500;2022-10-16T11:51:17;101012.49;;;16.71;52.21
49463;BME280;35357;51.722;0.500;2022-10-16T11:53:53;101017.70;;;17.24;49.73
49463;BME280;35357;51.722;0.500;2022-10-16T11:56:25;101017.01;;;17.84;50.07
49463;BME280;35357;51.722;0.500;2022-10-16T11:58:56;101018.70;;;17.40;50.67
49463;BME280;35357;51.722;0.500;2022-10-16T12:01:31;101019.75;;;17.27;50.06
49463;BME280;35357;51.722;0.500;2022-10-16T12:04:12;101017.77;;;17.67;49.40
49463;BME280;35357;51.722;0.500;2022-10-16T12:06:45;101008.55;;;17.38;49.81
49463;BME280;35357;51.722;0.500;2022-10-16T12:09:25;101020.12;;;17.22;49.52
49463;BME280;35357;51.722;0.500;2022-10-16T12:11:53;101014.51;;;17.76;48.27
49463;BME280;35357;51.722;0.500;2022-10-16T12:14:38;101012.62;;;17.45;48.32
49463;BME280;35357;51.722;0.500;2022-10-16T12:17:39;101015.01;;;17.32;49.11
49463;BME280;35357;51.722;0.500;2022-10-16T12:20:22;101013.05;;;16.46;50.86
49463;BME280;35357;51.722;0.500;2022-10-16T12:22:51;101014.46;;;17.17;49.44
49463;BME280;35357;51.722;0.500;2022-10-16T12:25:21;101020.43;;;17.35;49.36
49463;BME280;35357;51.722;0.500;2022-10-16T12:27:59;101024.04;;;17.92;48.94
49463;BME280;35357;51.722;0.500;2022-10-16T12:30:29;101026.63;;;18.04;48.89
49463;BME280;35357;51.722;0.500;2022-10-16T12:32:58;101021.46;;;18.01;48.78
49463;BME280;35357;51.722;0.500;2022-10-16T12:35:28;101024.58;;;17.07;49.69
49463;BME280;35357;51.722;0.500;2022-10-16T12:38:06;101023.66;;;17.26;50.08
49463;BME280;35357;51.722;0.500;2022-10-16T12:40:36;101021.20;;;16.96;50.08
49463;BME280;35357;51.722;0.500;2022-10-16T12:43:24;101015.50;;;15.29;54.20
49463;BME280;35357;51.722;0.500;2022-10-16T12:46:00;101018.19;;;17.19;51.08
49463;BME280;35357;51.722;0.500;2022-10-16T12:48:28;101014.41;;;18.09;49.98
49463;BME280;35357;51.722;0.500;2022-10-16T12:50:55;101009.86;;;17.87;49.81
49463;BME280;35357;51.722;0.500;2022-10-16T12:53:24;101000.15;;;18.25;49.09
49463;BME280;35357;51.722;0.500;2022-10-16T12:56:00;100994.14;;;18.72;47.90
49463;BME280;35357;51.722;0.500;2022-10-16T12:58:43;100996.45;;;18.44;48.90
49463;BME280;35357;51.722;0.500;2022-10-16T13:01:24;100998.15;;;18.50;48.32
49463;BME280;35357;51.722;0.500;2022-10-16T13:06:20;101000.21;;;19.31;45.79
49463;BME280;35357;51.722;0.500;2022-10-16T13:09:18;100998.95;;;18.97;47.23